Daiwan Glory — VRON4 — position and weather

sailwx.info

Track history (hours):
 
Tides and Currents Weather Stations Pressure Air Temp Water Temp Dewpoint Dewpoint Depression Visibility Wind Speed Wind Dir Waves Ship Positions

Daiwan Glory

Last reported at 2018-Jul-21 09:51 UTC. Time now 2018-Jul-21 11:22 UTC.
Position N 58°44' W 002°37'.

Length 173 m; draft 10.1 m.

Type: Cargo ship. MMSI: 477548200.

Date/timePositionNaut miles runAvg speedWind from/ knotsBaromVisibWave heightAir tempDewpointWater temp
2018-Jul-21 09:51N 58°44' W 002°37'412.4
2018-Jul-21 09:31N 58°43' W 002°45'510.7
2018-Jul-21 09:00N 58°43' W 002°55'4 8.7
2018-Jul-21 08:30N 58°43' W 003°04'4 8.7
2018-Jul-21 08:00N 58°43' W 003°12'611.2
2018-Jul-21 07:30N 58°43' W 003°23'612.7
2018-Jul-21 07:01N 58°44' W 003°35'5712.1
2018-Jul-21 02:20N 58°34' W 005°22'413.8
2018-Jul-21 02:00N 58°30' W 005°26'25712.7
2018-Jul-20 05:47N 54°54' W 009°38'413.5
2018-Jul-20 05:29N 54°50' W 009°42'813.5
2018-Jul-20 04:52N 54°44' W 009°51'613.4
2018-Jul-20 04:27N 54°39' W 009°57'613.1
2018-Jul-20 03:59N 54°34' W 010°03'613.2
2018-Jul-20 03:30N 54°29' W 010°10'713.1
2018-Jul-20 03:00N 54°24' W 010°16'713.1
2018-Jul-20 02:30N 54°19' W 010°24'713.3
2018-Jul-20 02:00N 54°14' W 010°31'713.4
2018-Jul-20 01:29N 54°08' W 010°36'613.3
2018-Jul-20 01:01N 54°01' W 010°37'713.7
2018-Jul-20 00:29N 53°54' W 010°39'713.7
2018-Jul-20 00:00N 53°48' W 010°40'713.3
2018-Jul-19 23:29N 53°41' W 010°41'913.5
2018-Jul-19 22:48N 53°32' W 010°44'413.8
2018-Jul-19 22:31N 53°28' W 010°45'713.6
2018-Jul-19 22:00N 53°21' W 010°46'3013.4
2018-Jul-19 19:46N 52°51' W 010°53'713.8
2018-Jul-19 19:16N 52°44' W 010°54'2513.6
2018-Jul-19 17:27N 52°20' W 010°60'613.2
2018-Jul-19 16:59N 52°14' W 011°01'813.4
2018-Jul-19 16:26N 52°06' W 011°03'713.6
2018-Jul-19 15:54N 51°59' W 011°04'713.7
2018-Jul-19 15:22N 51°52' W 011°06'1613.2
2018-Jul-19 14:09N 51°36' W 011°10'1213.4
2018-Jul-19 13:16N 51°25' W 011°13'413.5
2018-Jul-19 12:58N 51°20' W 011°13'713.4
2018-Jul-19 12:25N 51°13' W 011°15'713.5
2018-Jul-19 11:55N 51°06' W 011°16'613.5
2018-Jul-19 11:27N 51°00' W 011°17'613.4
2018-Jul-19 10:59N 50°54' W 011°18'713.6
2018-Jul-19 10:30N 50°48' W 011°20'713.7
2018-Jul-19 09:59N 50°41' W 011°22'  
2018-Jul-15 05:49N 28°49' W 015°07'412.3
2018-Jul-15 05:30N 28°45' W 015°08'612.6
2018-Jul-15 05:00N 28°38' W 015°09'612.7
2018-Jul-15 04:30N 28°32' W 015°10'612.5
2018-Jul-15 04:00N 28°26' W 015°12'612.9
2018-Jul-15 03:30N 28°21' W 015°15'613.0
2018-Jul-15 03:00N 28°15' W 015°18'713.0
2018-Jul-15 02:30N 28°09' W 015°22'3 5.8
2018-Jul-15 02:00N 28°07' W 015°24'0 0.1
2018-Jul-15 01:30N 28°07' W 015°24'0 0.0
2018-Jul-15 01:00N 28°07' W 015°24'0 0.0
2018-Jul-15 00:30N 28°07' W 015°24'0 0.0
2018-Jul-15 00:00N 28°07' W 015°24'0 0.0
2018-Jul-14 23:30N 28°07' W 015°24'0 0.0
2018-Jul-14 23:00N 28°07' W 015°24'0 0.0
2018-Jul-14 22:30N 28°07' W 015°24'0 0.0
2018-Jul-14 22:00N 28°07' W 015°24'0 0.0
2018-Jul-14 21:30N 28°07' W 015°24'0 0.0
2018-Jul-14 21:00N 28°07' W 015°24'0 0.0
2018-Jul-14 20:30N 28°07' W 015°24'0 0.1
2018-Jul-14 20:00N 28°07' W 015°24'0 0.1
2018-Jul-14 19:30N 28°07' W 015°24'0 0.2
2018-Jul-14 19:00N 28°07' W 015°24'2 4.6
2018-Jul-14 18:30N 28°06' W 015°22'5 9.4
2018-Jul-14 18:00N 28°02' W 015°19'611.7
2018-Jul-14 17:30N 27°56' W 015°18'611.7
2018-Jul-14 17:00N 27°50' W 015°17'611.9
2018-Jul-14 16:30N 27°45' W 015°17'712.8
2018-Jul-14 16:00N 27°38' W 015°17'  
Track history (hours):
 
Tides and Currents Weather Stations Pressure Air Temp Water Temp Dewpoint Dewpoint Depression Visibility Wind Speed Wind Dir Waves Ship Positions

Daiwan Glory

Last reported at 2018-Jul-21 09:51 UTC. Time now 2018-Jul-21 11:22 UTC.
Position N 58°44' W 002°37'.

Length 173 m; draft 10.1 m.

Type: Cargo ship. MMSI: 477548200.

Date/timePositionNaut miles runAvg speedWind from/ knotsBaromVisibWave heightAir tempDewpointWater temp
2018-Jul-21 09:51N 58°44' W 002°37'412.4
2018-Jul-21 09:31N 58°43' W 002°45'510.7
2018-Jul-21 09:00N 58°43' W 002°55'4 8.7
2018-Jul-21 08:30N 58°43' W 003°04'4 8.7
2018-Jul-21 08:00N 58°43' W 003°12'611.2
2018-Jul-21 07:30N 58°43' W 003°23'612.7
2018-Jul-21 07:01N 58°44' W 003°35'5712.1
2018-Jul-21 02:20N 58°34' W 005°22'413.8
2018-Jul-21 02:00N 58°30' W 005°26'25712.7
2018-Jul-20 05:47N 54°54' W 009°38'413.5
2018-Jul-20 05:29N 54°50' W 009°42'813.5
2018-Jul-20 04:52N 54°44' W 009°51'613.4
2018-Jul-20 04:27N 54°39' W 009°57'613.1
2018-Jul-20 03:59N 54°34' W 010°03'613.2
2018-Jul-20 03:30N 54°29' W 010°10'713.1
2018-Jul-20 03:00N 54°24' W 010°16'713.1
2018-Jul-20 02:30N 54°19' W 010°24'713.3
2018-Jul-20 02:00N 54°14' W 010°31'713.4
2018-Jul-20 01:29N 54°08' W 010°36'613.3
2018-Jul-20 01:01N 54°01' W 010°37'713.7
2018-Jul-20 00:29N 53°54' W 010°39'713.7
2018-Jul-20 00:00N 53°48' W 010°40'713.3
2018-Jul-19 23:29N 53°41' W 010°41'913.5
2018-Jul-19 22:48N 53°32' W 010°44'413.8
2018-Jul-19 22:31N 53°28' W 010°45'713.6
2018-Jul-19 22:00N 53°21' W 010°46'3013.4
2018-Jul-19 19:46N 52°51' W 010°53'713.8
2018-Jul-19 19:16N 52°44' W 010°54'2513.6
2018-Jul-19 17:27N 52°20' W 010°60'613.2
2018-Jul-19 16:59N 52°14' W 011°01'813.4
2018-Jul-19 16:26N 52°06' W 011°03'713.6
2018-Jul-19 15:54N 51°59' W 011°04'713.7
2018-Jul-19 15:22N 51°52' W 011°06'1613.2
2018-Jul-19 14:09N 51°36' W 011°10'1213.4
2018-Jul-19 13:16N 51°25' W 011°13'413.5
2018-Jul-19 12:58N 51°20' W 011°13'713.4
2018-Jul-19 12:25N 51°13' W 011°15'713.5
2018-Jul-19 11:55N 51°06' W 011°16'613.5
2018-Jul-19 11:27N 51°00' W 011°17'613.4
2018-Jul-19 10:59N 50°54' W 011°18'713.6
2018-Jul-19 10:30N 50°48' W 011°20'713.7
2018-Jul-19 09:59N 50°41' W 011°22'  
2018-Jul-15 05:49N 28°49' W 015°07'412.3
2018-Jul-15 05:30N 28°45' W 015°08'612.6
2018-Jul-15 05:00N 28°38' W 015°09'612.7
2018-Jul-15 04:30N 28°32' W 015°10'612.5
2018-Jul-15 04:00N 28°26' W 015°12'612.9
2018-Jul-15 03:30N 28°21' W 015°15'613.0
2018-Jul-15 03:00N 28°15' W 015°18'713.0
2018-Jul-15 02:30N 28°09' W 015°22'3 5.8
2018-Jul-15 02:00N 28°07' W 015°24'0 0.1
2018-Jul-15 01:30N 28°07' W 015°24'0 0.0
2018-Jul-15 01:00N 28°07' W 015°24'0 0.0
2018-Jul-15 00:30N 28°07' W 015°24'0 0.0
2018-Jul-15 00:00N 28°07' W 015°24'0 0.0
2018-Jul-14 23:30N 28°07' W 015°24'0 0.0
2018-Jul-14 23:00N 28°07' W 015°24'0 0.0
2018-Jul-14 22:30N 28°07' W 015°24'0 0.0
2018-Jul-14 22:00N 28°07' W 015°24'0 0.0
2018-Jul-14 21:30N 28°07' W 015°24'0 0.0
2018-Jul-14 21:00N 28°07' W 015°24'0 0.0
2018-Jul-14 20:30N 28°07' W 015°24'0 0.1
2018-Jul-14 20:00N 28°07' W 015°24'0 0.1
2018-Jul-14 19:30N 28°07' W 015°24'0 0.2
2018-Jul-14 19:00N 28°07' W 015°24'2 4.6
2018-Jul-14 18:30N 28°06' W 015°22'5 9.4
2018-Jul-14 18:00N 28°02' W 015°19'611.7
2018-Jul-14 17:30N 27°56' W 015°18'611.7
2018-Jul-14 17:00N 27°50' W 015°17'611.9
2018-Jul-14 16:30N 27°45' W 015°17'712.8
2018-Jul-14 16:00N 27°38' W 015°17'  

Dump ship's entire track history